Big Bear Station Historical Data
Daily Summary for February 3, 2019 Units:  English    Metric   Both
Next Day »
Daily Weekly Monthly Yearly Custom
  High: Low: Average:
Temperature: 39.2 °F 24.4 °F 31.2 °F
Dew Point: 35.7 °F 22.1 °F 29.6 °F
Humidity: 98% 87% 94%
Wind Speed: 3.7mph 0.0mph 0.2mph
Wind Gust: -999.0mph - -
Wind- - WSW
Pressure: 23.30 in 23.22 in -
Precipitation: 0.01 in    
Historical Graphs
 
 
Tabular Data for February 3, 2019
Time Temperature Dew Point Pressure Wind Wind Speed Wind Gust Humidity Rainfall Rate (Hourly)
00:04 28.8 °F 28.1 °F 23.23 in Calm   -999.0 mph 97% 0.00 in
00:19 28.8 °F 28.1 °F 23.23 in Calm   -999.0 mph 97% 0.00 in
00:34 28.9 °F 28.2 °F 23.23 in Calm   -999.0 mph 97% 0.00 in
00:49 28.9 °F 28.2 °F 23.22 in Calm   -999.0 mph 97% 0.00 in
01:05 28.9 °F 28.2 °F 23.22 in Calm   -999.0 mph 97% 0.00 in
01:20 28.8 °F 28.1 °F 23.23 in Calm   -999.0 mph 97% 0.00 in
01:35 28.6 °F 27.9 °F 23.22 in Calm   -999.0 mph 97% 0.00 in
01:51 28.4 °F 27.7 °F 23.23 in Calm   -999.0 mph 97% 0.00 in
02:06 28.4 °F 27.7 °F 23.23 in Calm   -999.0 mph 97% 0.00 in
02:21 28.4 °F 27.7 °F 23.23 in Calm   -999.0 mph 97% 0.00 in
02:37 28.4 °F 27.7 °F 23.23 in Calm   -999.0 mph 97% 0.00 in
02:52 28.0 °F 27.3 °F 23.24 in Calm   -999.0 mph 97% 0.00 in
03:07 27.5 °F 26.5 °F 23.24 in Calm   -999.0 mph 96% 0.00 in
03:22 26.4 °F 24.9 °F 23.24 in Calm   -999.0 mph 94% 0.00 in
03:37 25.9 °F 24.2 °F 23.23 in Calm   -999.0 mph 93% 0.00 in
03:53 25.3 °F 23.0 °F 23.23 in Calm   -999.0 mph 91% 0.00 in
04:08 25.0 °F 22.7 °F 23.23 in Calm   -999.0 mph 91% 0.00 in
04:23 24.8 °F 22.5 °F 23.22 in Calm   -999.0 mph 91% 0.00 in
04:39 24.6 °F 22.3 °F 23.23 in Calm   -999.0 mph 91% 0.00 in
04:54 24.4 °F 22.2 °F 23.23 in Calm   -999.0 mph 91% 0.00 in
05:09 24.4 °F 22.2 °F 23.23 in Calm   -999.0 mph 91% 0.00 in
05:24 24.6 °F 22.1 °F 23.23 in Calm   -999.0 mph 90% 0.00 in
05:40 24.4 °F 22.4 °F 23.24 in Calm   -999.0 mph 92% 0.00 in
05:55 24.6 °F 22.9 °F 23.24 in Calm   -999.0 mph 93% 0.00 in
06:10 25.0 °F 23.5 °F 23.24 in Calm   -999.0 mph 94% 0.00 in
06:25 25.5 °F 24.3 °F 23.25 in Calm   -999.0 mph 95% 0.00 in
06:41 25.9 °F 24.9 °F 23.26 in Calm   -999.0 mph 96% 0.00 in
06:56 26.1 °F 25.1 °F 23.27 in Calm   -999.0 mph 96% 0.00 in
07:11 26.4 °F 25.4 °F 23.27 in Calm   -999.0 mph 96% 0.00 in
07:26 27.0 °F 26.0 °F 23.27 in Calm   -999.0 mph 96% 0.00 in
07:41 27.5 °F 26.5 °F 23.27 in Calm   -999.0 mph 96% 0.00 in
07:57 28.4 °F 27.2 °F 23.28 in Calm   -999.0 mph 95% 0.00 in
08:12 29.3 °F 28.0 °F 23.28 in Calm   -999.0 mph 95% 0.00 in
08:27 29.8 °F 28.3 °F 23.28 in Calm   -999.0 mph 94% 0.00 in
08:42 30.7 °F 28.9 °F 23.28 in Calm   -999.0 mph 93% 0.00 in
08:57 31.3 °F 29.5 °F 23.28 in Calm   -999.0 mph 93% 0.00 in
09:13 32.9 °F 30.6 °F 23.28 in Calm   -999.0 mph 91% 0.00 in
09:28 33.3 °F 31.0 °F 23.29 in Calm   -999.0 mph 91% 0.00 in
09:43 33.6 °F 31.3 °F 23.29 in Calm   -999.0 mph 91% 0.00 in
09:58 33.4 °F 31.3 °F 23.28 in Calm   -999.0 mph 92% 0.00 in
10:13 34.0 °F 31.7 °F 23.29 in Calm   -999.0 mph 91% 0.00 in
10:29 36.0 °F 32.8 °F 23.30 in Calm   -999.0 mph 88% 0.00 in
10:44 36.1 °F 32.9 °F 23.30 in Calm   -999.0 mph 88% 0.00 in
11:00 37.0 °F 33.5 °F 23.30 in Calm   -999.0 mph 87% 0.00 in
11:15 36.9 °F 33.4 °F 23.29 in Calm   -999.0 mph 87% 0.00 in
11:30 36.3 °F 33.4 °F 23.29 in Calm   -999.0 mph 89% 0.00 in
11:45 36.1 °F 33.5 °F 23.29 in Calm   -999.0 mph 90% 0.00 in
12:00 36.1 °F 33.2 °F 23.28 in Calm   -999.0 mph 89% 0.00 in
12:16 39.0 °F 35.5 °F 23.28 in Calm   -999.0 mph 87% 0.00 in
12:31 39.2 °F 35.7 °F 23.28 in Calm   -999.0 mph 87% 0.00 in
12:46 38.8 °F 35.3 °F 23.27 in Calm   -999.0 mph 87% 0.00 in
13:01 38.3 °F 34.8 °F 23.27 in Calm   -999.0 mph 87% 0.00 in
13:17 37.8 °F 34.6 °F 23.26 in Calm   -999.0 mph 88% 0.00 in
13:32 38.1 °F 34.6 °F 23.26 in NNW 3.7 mph -999.0 mph 87% 0.00 in
13:47 37.9 °F 34.9 °F 23.25 in Calm   -999.0 mph 89% 0.00 in
14:02 37.8 °F 34.6 °F 23.25 in Calm   -999.0 mph 88% 0.00 in
14:17 37.2 °F 34.3 °F 23.25 in SE 3.2 mph -999.0 mph 89% 0.00 in
14:33 37.0 °F 34.1 °F 23.25 in Calm   -999.0 mph 89% 0.00 in
14:48 36.3 °F 33.6 °F 23.25 in Calm   -999.0 mph 90% 0.00 in
15:03 36.0 °F 33.4 °F 23.25 in Calm   -999.0 mph 90% 0.00 in
15:18 35.2 °F 32.8 °F 23.25 in South 1.1 mph -999.0 mph 91% 0.00 in
15:33 34.7 °F 32.6 °F 23.25 in Calm   -999.0 mph 92% 0.00 in
15:49 34.7 °F 32.6 °F 23.25 in Calm   -999.0 mph 92% 0.00 in
16:04 34.5 °F 32.4 °F 23.26 in Calm   -999.0 mph 92% 0.00 in
16:19 34.0 °F 32.2 °F 23.25 in Calm   -999.0 mph 93% 0.00 in
16:34 33.3 °F 31.5 °F 23.25 in Calm   -999.0 mph 93% 0.00 in
16:50 32.7 °F 31.2 °F 23.25 in Calm   -999.0 mph 94% 0.00 in
17:05 32.5 °F 31.2 °F 23.25 in Calm   -999.0 mph 95% 0.00 in
17:20 32.2 °F 31.2 °F 23.25 in Calm   -999.0 mph 96% 0.00 in
17:35 32.2 °F 31.2 °F 23.25 in Calm   -999.0 mph 96% 0.00 in
17:50 32.0 °F 31.0 °F 23.25 in Calm   -999.0 mph 96% 0.00 in
18:05 32.0 °F 31.0 °F 23.26 in NW 2.7 mph -999.0 mph 96% 0.00 in
18:21 31.8 °F 31.0 °F 23.26 in Calm   -999.0 mph 97% 0.00 in
18:36 31.8 °F 31.0 °F 23.26 in NW 3.2 mph -999.0 mph 97% 0.00 in
18:51 31.8 °F 31.3 °F 23.26 in Calm   -999.0 mph 98% 0.00 in
19:07 31.6 °F 31.1 °F 23.26 in Calm   -999.0 mph 98% 0.00 in
19:22 31.5 °F 31.0 °F 23.26 in Calm   -999.0 mph 98% 0.00 in
19:37 31.5 °F 31.0 °F 23.26 in Calm   -999.0 mph 98% 0.00 in
19:52 31.6 °F 31.1 °F 23.25 in Calm   -999.0 mph 98% 0.00 in
20:07 31.6 °F 31.1 °F 23.25 in Calm   -999.0 mph 98% 0.00 in
20:23 31.6 °F 31.1 °F 23.25 in Calm   -999.0 mph 98% 0.00 in
20:38 31.6 °F 31.1 °F 23.25 in Calm   -999.0 mph 98% 0.00 in
20:53 31.1 °F 30.6 °F 23.25 in Calm   -999.0 mph 98% 0.00 in
21:08 31.1 °F 30.6 °F 23.25 in Calm   -999.0 mph 98% 0.00 in
21:23 31.1 °F 30.6 °F 23.25 in Calm   -999.0 mph 98% 0.00 in
21:39 30.7 °F 30.2 °F 23.25 in NW 1.7 mph -999.0 mph 98% 0.00 in
21:54 30.6 °F 29.9 °F 23.25 in NW 2.7 mph -999.0 mph 97% 0.00 in
22:09 30.4 °F 29.7 °F 23.25 in Calm   -999.0 mph 97% 0.00 in
22:24 30.4 °F 29.7 °F 23.25 in Calm   -999.0 mph 97% 0.00 in
22:40 30.0 °F 29.3 °F 23.25 in Calm   -999.0 mph 97% 0.00 in
22:55 30.0 °F 29.3 °F 23.26 in Calm   -999.0 mph 97% 0.00 in
23:10 29.8 °F 29.1 °F 23.25 in Calm   -999.0 mph 97% 0.00 in
23:25 30.0 °F 29.3 °F 23.25 in Calm   -999.0 mph 97% 0.00 in
23:40 30.4 °F 29.7 °F 23.25 in Calm   -999.0 mph 97% 0.00 in
23:56 30.6 °F 29.9 °F 23.25 in East 2.7 mph -999.0 mph 97% 0.00 in
Big Bear CA Weather